Time;durP1;ratioP1;P1;durP2;ratioP2;P2;SDS_P1;SDS_P2;PMS_P1;PMS_P2;Temp;Humidity;BMP_temperature;BMP_pressure;BME280_temperature;BME280_humidity;BME280_pressure;Samples;Min_cycle;Max_cycle;Signal;HPM_P1;HPM_P2
2022/12/09 11:23:16;;;;;;;33.63;21.57;;;;;;;2.31;100.00;100543.13;5284961;27;20361;-74
2022/12/09 11:25:54;;;;;;;35.20;21.40;;;;;;;2.27;100.00;100544.94;5290083;28;20813;-73
2022/12/09 11:28:28;;;;;;;41.00;22.77;;;;;;;2.29;100.00;100545.75;5278780;28;20021;-72
2022/12/09 11:31:02;;;;;;;;;;;;;;;2.43;100.00;100547.06;5294727;28;20025;-74
2022/12/09 11:33:46;;;;;;;32.13;22.13;;;;;;;2.34;100.00;100547.38;5293467;28;19912;-73
2022/12/09 11:36:21;;;;;;;45.05;28.45;;;;;;;2.23;100.00;100539.94;5273613;28;20091;-73
2022/12/09 11:39:07;;;;;;;33.60;20.90;;;;;;;2.08;100.00;100546.41;5284267;28;20125;-72
2022/12/09 11:44:50;;;;;;;36.20;23.13;;;;;;;2.22;100.00;100539.06;5279290;28;20024;-71
2022/12/09 11:47:32;;;;;;;33.07;20.70;;;;;;;2.13;100.00;100527.28;5281988;28;20074;-72
2022/12/09 11:50:30;;;;;;;38.40;23.33;;;;;;;2.34;100.00;100537.03;5286926;28;20028;-71
2022/12/09 11:53:10;;;;;;;40.57;24.60;;;;;;;2.32;100.00;100536.22;5283202;28;20068;-72
2022/12/09 11:55:48;;;;;;;35.93;22.43;;;;;;;2.13;100.00;100535.03;5284268;28;20358;-70
2022/12/09 11:58:55;;;;;;;36.67;24.33;;;;;;;2.12;100.00;100543.69;5284065;28;20021;-73
2022/12/09 12:01:35;;;;;;;36.37;23.23;;;;;;;2.02;100.00;100537.09;5269723;28;20052;-71
2022/12/09 12:04:13;;;;;;;44.83;27.27;;;;;;;2.00;100.00;100531.13;5282561;28;20036;-72
2022/12/09 12:06:52;;;;;;;42.47;27.67;;;;;;;2.02;100.00;100537.94;5282032;28;20028;-71
2022/12/09 12:09:30;;;;;;;37.97;23.77;;;;;;;2.08;100.00;100534.31;5284518;28;20036;-71
2022/12/09 12:12:13;;;;;;;35.33;23.37;;;;;;;2.15;100.00;100514.31;5267612;28;20024;-72
2022/12/09 12:14:44;;;;;;;32.53;20.97;;;;;;;1.97;100.00;100533.78;5281785;28;20074;-71
2022/12/09 12:17:23;;;;;;;29.77;19.43;;;;;;;1.96;100.00;100527.78;5284040;28;20025;-71
2022/12/09 12:19:56;;;;;;;33.73;19.70;;;;;;;2.16;100.00;100531.53;5285589;28;20036;-71
2022/12/09 12:22:33;;;;;;;29.23;18.60;;;;;;;2.27;100.00;100526.03;5278917;28;20089;-72
2022/12/09 12:25:32;;;;;;;23.83;15.23;;;;;;;2.38;100.00;100523.09;5275961;28;20039;-71
2022/12/09 12:28:28;;;;;;;24.83;17.97;;;;;;;2.26;100.00;100529.50;5276504;28;20031;-72
2022/12/09 12:31:35;;;;;;;28.27;19.33;;;;;;;2.30;100.00;100542.28;5275516;28;20531;-71
2022/12/09 12:34:20;;;;;;;27.13;17.47;;;;;;;2.45;100.00;100537.53;5270275;28;21189;-71
2022/12/09 12:37:17;;;;;;;25.25;17.27;;;;;;;2.51;100.00;100539.09;5272899;28;20019;-71
2022/12/09 12:40:09;;;;;;;27.20;17.93;;;;;;;2.54;100.00;100523.47;5266748;28;20107;-71
2022/12/09 12:46:16;;;;;;;29.80;19.53;;;;;;;2.54;100.00;100526.06;5273047;28;20029;-71
2022/12/09 12:49:05;;;;;;;31.53;18.00;;;;;;;2.31;100.00;100530.19;5267253;28;20029;-71
2022/12/09 12:52:05;;;;;;;31.23;20.33;;;;;;;2.08;100.00;100531.72;5267910;28;20044;-71
2022/12/09 12:54:55;;;;;;;30.77;18.67;;;;;;;2.11;100.00;100523.06;5261076;28;20116;-71
2022/12/09 12:57:40;;;;;;;30.67;18.87;;;;;;;1.84;100.00;100522.94;5259912;28;20024;-71
2022/12/09 13:00:19;;;;;;;30.07;18.70;;;;;;;2.07;100.00;100519.72;5260350;28;20021;-71
2022/12/09 13:03:20;;;;;;;29.97;18.77;;;;;;;2.10;100.00;100501.53;5267021;28;20539;-71
2022/12/09 13:05:55;;;;;;;29.53;18.67;;;;;;;2.05;100.00;100514.59;5266688;28;20037;-71
2022/12/09 13:08:34;;;;;;;33.10;20.10;;;;;;;2.08;100.00;100523.16;5267560;28;20052;-71
2022/12/09 13:11:16;;;;;;;33.27;19.47;;;;;;;2.12;100.00;100511.81;5264906;28;20109;-71
2022/12/09 13:13:55;;;;;;;30.23;19.37;;;;;;;1.99;100.00;100511.34;5275462;28;20048;-71
2022/12/09 13:16:31;;;;;;;29.37;18.67;;;;;;;2.23;100.00;100511.50;5270205;28;20020;-71
2022/12/09 13:19:12;;;;;;;27.87;18.40;;;;;;;2.10;100.00;100493.78;5266865;28;20159;-72
2022/12/09 13:21:44;;;;;;;35.23;20.23;;;;;;;2.14;100.00;100510.03;5272408;28;20098;-72
2022/12/09 13:24:25;;;;;;;28.60;19.17;;;;;;;1.93;100.00;100513.22;5271497;28;20031;-73
2022/12/09 13:27:23;;;;;;;30.60;19.60;;;;;;;2.23;100.00;100516.69;5271014;28;20024;-73
2022/12/09 13:30:12;;;;;;;28.87;20.30;;;;;;;2.18;100.00;100522.81;5273024;28;20107;-73
2022/12/09 13:33:13;;;;;;;30.93;18.93;;;;;;;2.28;100.00;100514.78;5273732;28;20047;-73
2022/12/09 13:35:56;;;;;;;30.70;19.93;;;;;;;2.23;100.00;100507.19;5269982;28;20432;-73
2022/12/09 13:38:38;;;;;;;30.90;19.20;;;;;;;2.28;100.00;100522.56;5266045;28;20048;-73
2022/12/09 13:41:25;;;;;;;31.50;19.97;;;;;;;2.40;100.00;100510.97;5266236;28;20137;-72
2022/12/09 13:44:05;;;;;;;29.63;20.27;;;;;;;2.45;100.00;100511.69;5262226;28;20062;-75
2022/12/09 13:46:37;;;;;;;30.77;18.60;;;;;;;2.45;100.00;100505.66;5267779;28;20055;-73
2022/12/09 13:49:20;;;;;;;35.37;22.03;;;;;;;2.56;100.00;100513.09;5273431;28;20012;-72
2022/12/09 13:51:54;;;;;;;31.20;21.07;;;;;;;2.39;100.00;100512.72;5263944;28;20036;-73
2022/12/09 13:54:27;;;;;;;28.30;18.17;;;;;;;2.51;100.00;100518.41;5268669;28;20028;-73
2022/12/09 13:57:20;;;;;;;31.50;20.67;;;;;;;2.62;100.00;100515.47;5274803;28;20085;-73
2022/12/09 13:59:57;;;;;;;30.33;20.27;;;;;;;2.59;100.00;100512.97;5263896;28;20314;-72
2022/12/09 14:02:34;;;;;;;30.43;19.83;;;;;;;2.70;100.00;100513.50;5256955;28;20036;-72
2022/12/09 14:05:17;;;;;;;33.73;20.27;;;;;;;2.55;100.00;100520.00;5269272;28;20052;-72
2022/12/09 14:08:14;;;;;;;35.13;21.40;;;;;;;2.27;100.00;100507.94;5268712;28;20035;-73
2022/12/09 14:10:49;;;;;;;36.87;21.33;;;;;;;2.09;100.00;100515.34;5269994;28;20036;-73
2022/12/09 14:13:33;;;;;;;32.33;23.23;;;;;;;2.07;100.00;100506.81;5270214;28;20032;-73
2022/12/09 14:16:27;;;;;;;32.22;20.95;;;;;;;2.13;100.00;100526.44;5266455;28;20033;-73
2022/12/09 14:19:24;;;;;;;30.23;19.70;;;;;;;2.09;100.00;100527.41;5264519;28;20526;-73
2022/12/09 14:22:18;;;;;;;32.27;18.87;;;;;;;2.27;100.00;100526.03;5264495;28;20048;-73
2022/12/09 14:24:57;;;;;;;29.70;19.43;;;;;;;2.13;100.00;100527.28;5266014;28;20063;-73
2022/12/09 14:27:30;;;;;;;29.27;19.83;;;;;;;2.34;100.00;100534.44;5274606;28;20459;-73
2022/12/09 14:30:24;;;;;;;32.07;21.07;;;;;;;2.12;100.00;100524.75;5273914;28;20028;-73
2022/12/09 14:32:55;;;;;;;33.17;20.50;;;;;;;2.26;100.00;100526.91;5272534;28;20417;-74
2022/12/09 14:35:48;;;;;;;31.17;20.13;;;;;;;2.29;100.00;100532.84;5272730;28;20050;-72
2022/12/09 14:38:40;;;;;;;34.57;22.03;;;;;;;2.18;100.00;100538.31;5272415;28;20047;-72
2022/12/09 14:41:11;;;;;;;32.13;21.03;;;;;;;1.96;100.00;100538.09;5269893;28;20033;-72
2022/12/09 14:44:10;;;;;;;29.33;19.63;;;;;;;2.22;100.00;100533.91;5272757;28;20059;-73
2022/12/09 14:46:46;;;;;;;31.80;20.57;;;;;;;2.37;100.00;100535.19;5273624;28;20036;-73
2022/12/09 14:49:27;;;;;;;35.13;21.03;;;;;;;2.34;100.00;100537.84;5271324;28;20059;-73
2022/12/09 14:52:02;;;;;;;33.53;21.13;;;;;;;2.34;100.00;100537.03;5268906;28;20091;-74
2022/12/09 14:54:37;;;;;;;30.53;20.40;;;;;;;2.46;100.00;100533.22;5265889;28;20565;-74
2022/12/09 14:57:25;;;;;;;34.10;19.77;;;;;;;2.32;100.00;100529.31;5268953;28;20028;-73
2022/12/09 14:59:57;;;;;;;31.17;20.37;;;;;;;2.12;100.00;100528.19;5266482;28;20035;-74
2022/12/09 15:02:30;;;;;;;31.27;20.97;;;;;;;2.24;100.00;100520.94;5270744;28;20040;-74
2022/12/09 15:05:01;;;;;;;31.07;19.43;;;;;;;2.27;100.00;100531.22;5271244;28;20028;-76
2022/12/09 15:07:33;;;;;;;32.00;20.10;;;;;;;2.21;100.00;100516.72;5270599;28;20086;-76
2022/12/09 15:10:17;;;;;;;30.43;19.53;;;;;;;2.30;100.00;100539.69;5271616;28;20032;-75
2022/12/09 15:12:52;;;;;;;27.88;18.80;;;;;;;2.33;100.00;100543.94;5272923;28;20032;-76
2022/12/09 15:15:41;;;;;;;;;;;;;;;2.42;100.00;100543.66;5266752;28;20121;-73
2022/12/09 15:18:15;;;;;;;34.40;19.77;;;;;;;1.81;100.00;100544.56;5263343;28;19970;-74
2022/12/09 15:20:53;;;;;;;33.70;20.77;;;;;;;1.98;100.00;100538.91;5269528;28;20108;-72
2022/12/09 15:23:33;;;;;;;29.70;19.63;;;;;;;2.01;100.00;100548.28;5264631;28;20029;-74
2022/12/09 15:26:25;;;;;;;32.13;19.50;;;;;;;2.13;100.00;100558.28;5297963;28;20032;-74
2022/12/09 15:28:58;;;;;;;31.70;19.80;;;;;;;2.15;100.00;100542.72;5266533;28;20036;-75
2022/12/09 15:31:30;;;;;;;30.87;19.27;;;;;;;2.14;100.00;100548.81;5266013;28;20182;-75
2022/12/09 15:34:13;;;;;;;37.03;23.53;;;;;;;2.22;100.00;100554.59;5266588;28;20113;-73
2022/12/09 15:36:52;;;;;;;40.17;27.50;;;;;;;2.07;100.00;100550.72;5266311;28;20064;-73
2022/12/09 15:39:31;;;;;;;32.70;21.73;;;;;;;2.08;100.00;100551.56;5264451;28;20048;-74
2022/12/09 15:42:10;;;;;;;35.17;24.33;;;;;;;2.16;100.00;100555.59;5261385;28;20047;-74
2022/12/09 15:44:52;;;;;;;37.43;23.77;;;;;;;2.13;100.00;100549.69;5263060;28;20024;-75
2022/12/09 15:47:32;;;;;;;35.27;22.30;;;;;;;2.17;100.00;100556.44;5263609;28;20129;-72
2022/12/09 15:50:20;;;;;;;32.17;21.47;;;;;;;2.13;100.00;100547.94;5260510;28;20035;-73
2022/12/09 15:53:00;;;;;;;31.57;22.23;;;;;;;2.12;100.00;100553.16;5259616;28;20441;-73
2022/12/09 15:55:41;;;;;;;29.17;18.80;;;;;;;2.09;100.00;100554.09;5261480;28;20033;-74
2022/12/09 15:58:19;;;;;;;30.73;20.20;;;;;;;2.13;100.00;100553.09;5262816;28;20064;-72
2022/12/09 16:00:52;;;;;;;35.63;24.73;;;;;;;1.75;100.00;100530.06;5263445;28;20124;-73
2022/12/09 16:03:27;;;;;;;34.03;22.97;;;;;;;2.00;100.00;100552.63;5269490;28;20106;-72
2022/12/09 16:06:07;;;;;;;32.50;20.83;;;;;;;1.87;100.00;100544.38;5271893;28;20391;-72
2022/12/09 16:08:42;;;;;;;36.30;21.97;;;;;;;1.88;100.00;100553.84;5267664;28;20433;-72
2022/12/09 16:11:34;;;;;;;35.13;20.83;;;;;;;1.79;100.00;100536.00;5273142;28;20694;-72
2022/12/09 16:14:05;;;;;;;30.13;19.70;;;;;;;1.87;100.00;100553.88;5270003;28;20040;-72
2022/12/09 16:16:46;;;;;;;35.77;20.80;;;;;;;1.87;100.00;100539.22;5275834;28;20383;-72
2022/12/09 16:19:25;;;;;;;25.83;18.93;;;;;;;1.90;100.00;100549.44;5265916;28;20194;-72
2022/12/09 16:22:06;;;;;;;34.07;21.70;;;;;;;1.76;100.00;100541.25;5271204;28;20093;-72
2022/12/09 16:24:43;;;;;;;35.63;22.97;;;;;;;1.64;100.00;100540.69;5270019;28;20116;-73
2022/12/09 16:27:18;;;;;;;32.17;21.00;;;;;;;1.55;100.00;100538.38;5274329;28;20032;-73
2022/12/09 16:30:00;;;;;;;31.07;20.30;;;;;;;1.54;100.00;100539.25;5266776;28;20067;-73
2022/12/09 16:32:39;;;;;;;33.37;20.37;;;;;;;1.52;100.00;100531.56;5270444;28;20032;-73
2022/12/09 16:35:18;;;;;;;30.43;21.23;;;;;;;1.50;100.00;100545.41;5275596;28;20040;-73
2022/12/09 16:38:15;;;;;;;33.73;22.73;;;;;;;1.52;100.00;100546.22;5272338;28;20040;-73
2022/12/09 16:40:46;;;;;;;30.00;20.70;;;;;;;1.49;100.00;100547.13;5270649;28;20052;-74
2022/12/09 16:43:22;;;;;;;30.23;20.43;;;;;;;1.35;100.00;100547.50;5267911;28;20032;-73
2022/12/09 16:46:00;;;;;;;32.23;21.07;;;;;;;1.41;100.00;100549.94;5268870;28;20435;-73
2022/12/09 16:48:31;;;;;;;34.27;21.73;;;;;;;1.36;100.00;100549.19;5263705;28;20048;-73
2022/12/09 16:51:12;;;;;;;29.90;19.23;;;;;;;1.43;100.00;100561.03;5265160;28;20053;-74
2022/12/09 16:53:47;;;;;;;31.27;19.97;;;;;;;1.34;100.00;100561.28;5271623;28;20082;-73
2022/12/09 16:56:27;;;;;;;33.58;21.55;;;;;;;1.30;100.00;100559.66;5270946;28;20036;-73
2022/12/09 16:58:58;;;;;;;34.13;21.33;;;;;;;0.97;100.00;100555.31;5271595;28;20052;-73
2022/12/09 17:01:34;;;;;;;29.37;20.60;;;;;;;1.26;100.00;100560.63;5271397;28;20033;-73
2022/12/09 17:04:25;;;;;;;35.37;21.43;;;;;;;1.33;100.00;100567.31;5267999;28;20147;-74
2022/12/09 17:06:57;;;;;;;35.60;23.13;;;;;;;1.23;100.00;100560.69;5269442;28;20032;-73
2022/12/09 17:09:28;;;;;;;33.30;21.93;;;;;;;1.28;100.00;100577.75;5270084;28;20025;-72
2022/12/09 17:11:59;;;;;;;32.63;21.60;;;;;;;1.29;100.00;100570.88;5270781;28;20111;-76
2022/12/09 17:14:31;;;;;;;36.93;23.17;;;;;;;1.22;100.00;100583.09;5274321;28;20047;-75
2022/12/09 17:17:02;;;;;;;37.73;22.93;;;;;;;1.21;100.00;100581.38;5272980;28;20025;-74
2022/12/09 17:19:34;;;;;;;34.27;22.33;;;;;;;1.19;100.00;100581.41;5270770;28;20055;-74
2022/12/09 17:22:05;;;;;;;37.87;24.10;;;;;;;1.20;100.00;100588.25;5269442;28;20041;-74
2022/12/09 17:24:37;;;;;;;37.30;23.80;;;;;;;1.15;100.00;100591.88;5275108;28;20108;-75
2022/12/09 17:27:08;;;;;;;35.10;23.37;;;;;;;1.20;100.00;100588.25;5273872;28;20082;-75
2022/12/09 17:29:40;;;;;;;39.40;24.83;;;;;;;1.07;100.00;100568.81;5283189;28;20024;-74
2022/12/09 17:32:11;;;;;;;45.20;25.97;;;;;;;1.17;100.00;100605.56;5270284;28;20111;-74
2022/12/09 17:34:42;;;;;;;42.13;26.10;;;;;;;1.20;100.00;100598.59;5275104;28;20096;-74
2022/12/09 17:37:15;;;;;;;42.07;26.00;;;;;;;1.11;100.00;100585.94;5266486;28;20028;-73
2022/12/09 17:39:47;;;;;;;43.27;25.73;;;;;;;1.13;100.00;100604.81;5270768;28;20029;-73
2022/12/09 17:42:18;;;;;;;41.23;24.83;;;;;;;1.01;100.00;100592.19;5272985;28;20027;-74
2022/12/09 17:44:50;;;;;;;36.67;23.43;;;;;;;1.07;100.00;100602.34;5270081;28;20025;-75
2022/12/09 17:47:21;;;;;;;42.53;24.80;;;;;;;1.13;100.00;100609.09;5266327;28;20025;-72
2022/12/09 17:49:52;;;;;;;38.43;25.83;;;;;;;1.12;100.00;100605.66;5270228;28;20036;-73
2022/12/09 17:52:23;;;;;;;35.40;22.93;;;;;;;1.11;100.00;100611.72;5294502;28;20039;-72
2022/12/09 17:54:55;;;;;;;40.63;24.97;;;;;;;1.05;100.00;100602.41;5272314;28;20023;-72
2022/12/09 17:57:26;;;;;;;39.13;23.60;;;;;;;0.98;100.00;100606.00;5271357;28;20029;-71
2022/12/09 17:59:57;;;;;;;39.93;26.43;;;;;;;1.13;100.00;100616.84;5274849;28;20028;-72
2022/12/09 18:02:28;;;;;;;39.47;25.00;;;;;;;0.95;100.00;100614.66;5269495;28;20021;-71
2022/12/09 18:05:00;;;;;;;35.97;23.07;;;;;;;0.95;100.00;100608.66;5272890;28;20101;-74
2022/12/09 18:07:31;;;;;;;39.87;24.37;;;;;;;1.09;100.00;100628.97;5269187;28;20622;-72
2022/12/09 18:10:03;;;;;;;34.40;23.97;;;;;;;1.06;100.00;100624.75;5270104;28;20051;-74
2022/12/09 18:12:34;;;;;;;33.23;22.10;;;;;;;1.09;100.00;100631.53;5267131;28;20028;-75
2022/12/09 18:15:06;;;;;;;36.03;23.57;;;;;;;1.09;100.00;100623.81;5268524;28;20150;-86
2022/12/09 18:17:37;;;;;;;36.13;23.27;;;;;;;0.99;100.00;100620.59;5266562;28;20025;-83
2022/12/09 18:20:11;;;;;;;36.80;23.97;;;;;;;0.95;100.00;100617.25;5272637;28;20036;-85
2022/12/09 18:22:43;;;;;;;35.55;24.48;;;;;;;0.98;100.00;100620.66;5272066;28;20085;-76
2022/12/09 18:25:14;;;;;;;39.33;25.20;;;;;;;0.72;100.00;100628.06;5270592;28;20032;-81
2022/12/09 18:27:46;;;;;;;43.00;25.33;;;;;;;0.94;100.00;100627.59;5254181;28;20064;-75
2022/12/09 18:30:17;;;;;;;37.67;24.80;;;;;;;0.82;100.00;100629.56;5271413;28;20768;-77
2022/12/09 18:32:49;;;;;;;40.13;25.93;;;;;;;0.77;100.00;100615.09;5271891;28;20048;-75
2022/12/09 18:35:20;;;;;;;43.70;25.67;;;;;;;0.77;100.00;100633.97;5272318;28;20226;-74
2022/12/09 18:37:52;;;;;;;38.33;24.73;;;;;;;0.77;100.00;100636.53;5266059;28;20025;-74
2022/12/09 18:40:24;;;;;;;53.50;34.70;;;;;;;0.64;100.00;100637.69;5267173;28;20032;-77
2022/12/09 18:42:55;;;;;;;49.33;32.13;;;;;;;0.63;100.00;100639.44;5258563;28;20371;-74
2022/12/09 18:45:27;;;;;;;40.90;25.53;;;;;;;0.57;100.00;100627.53;5270600;28;20082;-74
2022/12/09 18:47:58;;;;;;;42.07;26.87;;;;;;;0.70;100.00;100641.00;5266409;28;20037;-73
2022/12/09 18:50:29;;;;;;;42.47;27.80;;;;;;;0.65;100.00;100644.53;5273397;28;20108;-73
2022/12/09 18:53:01;;;;;;;40.93;25.20;;;;;;;0.64;100.00;100643.72;5259668;28;20082;-73
2022/12/09 18:55:32;;;;;;;38.87;24.37;;;;;;;0.60;100.00;100631.75;5262819;28;20044;-74
2022/12/09 18:58:03;;;;;;;43.63;27.07;;;;;;;0.55;100.00;100649.06;5261555;28;20100;-74
2022/12/09 19:00:36;;;;;;;44.03;27.47;;;;;;;0.64;100.00;100648.00;5268432;28;20031;-74
2022/12/09 19:03:07;;;;;;;47.47;28.73;;;;;;;0.59;100.00;100650.69;5262522;28;20035;-74
2022/12/09 19:05:40;;;;;;;45.03;27.30;;;;;;;0.44;100.00;100644.97;5255669;28;20029;-74
2022/12/09 19:08:11;;;;;;;48.03;28.23;;;;;;;0.51;100.00;100650.03;5262230;28;20025;-74
2022/12/09 19:10:52;;;;;;;45.03;27.53;;;;;;;0.45;100.00;100649.25;5260130;28;20013;-74
2022/12/09 19:13:23;;;;;;;42.63;27.37;;;;;;;0.55;100.00;100654.22;5260533;28;20036;-74
2022/12/09 19:15:55;;;;;;;38.80;26.03;;;;;;;0.48;100.00;100666.38;5261718;28;20498;-75
2022/12/09 19:18:26;;;;;;;39.00;25.80;;;;;;;0.44;100.00;100673.31;5267920;28;20579;-75
2022/12/09 19:21:16;;;;;;;42.57;27.80;;;;;;;0.37;100.00;100663.19;5266518;28;20033;-72
2022/12/09 19:23:48;;;;;;;34.03;24.60;;;;;;;0.40;100.00;100663.94;5262342;28;20032;-74
2022/12/09 19:26:24;;;;;;;34.53;24.57;;;;;;;0.38;100.00;100667.44;5265607;28;20024;-75
2022/12/09 19:29:06;;;;;;;38.13;24.03;;;;;;;0.38;100.00;100670.03;5275167;28;20021;-74
2022/12/09 19:31:43;;;;;;;40.83;27.17;;;;;;;0.36;100.00;100672.63;5274834;28;20095;-74
2022/12/09 19:34:18;;;;;;;39.50;25.53;;;;;;;0.28;100.00;100675.34;5271272;28;20032;-74
2022/12/09 19:36:51;;;;;;;40.03;24.97;;;;;;;0.30;100.00;100670.16;5260676;28;20021;-75
2022/12/09 19:39:28;;;;;;;41.67;26.37;;;;;;;0.29;100.00;100668.47;5262180;28;20020;-75
2022/12/09 19:42:00;;;;;;;36.27;25.03;;;;;;;0.12;100.00;100669.66;5258747;28;20041;-73
2022/12/09 19:44:31;;;;;;;43.37;26.93;;;;;;;0.18;100.00;100674.69;5276902;28;20430;-72
2022/12/09 19:47:03;;;;;;;35.70;24.13;;;;;;;0.02;100.00;100670.72;5265299;28;20028;-75
2022/12/09 19:49:35;;;;;;;36.87;24.77;;;;;;;0.05;100.00;100661.22;5267634;28;20176;-72
2022/12/09 19:52:06;;;;;;;38.23;24.70;;;;;;;0.13;100.00;100680.78;5261644;28;20074;-75
2022/12/09 19:54:37;;;;;;;45.33;27.37;;;;;;;0.13;100.00;100683.38;5259577;28;20537;-74
2022/12/09 19:57:09;;;;;;;35.73;24.00;;;;;;;0.11;100.00;100681.69;5264384;28;20111;-75
2022/12/09 19:59:40;;;;;;;40.50;27.73;;;;;;;-0.16;100.00;100672.75;5266772;28;20036;-74
2022/12/09 20:02:12;;;;;;;46.33;29.87;;;;;;;-0.17;100.00;100696.75;5265816;28;20033;-74
2022/12/09 20:04:44;;;;;;;40.17;28.47;;;;;;;-0.07;100.00;100682.84;5266463;28;20100;-75
2022/12/09 20:07:15;;;;;;;43.97;29.40;;;;;;;-0.25;100.00;100684.91;5264494;28;20113;-75
2022/12/09 20:09:47;;;;;;;42.83;27.40;;;;;;;-0.16;100.00;100675.31;5271082;28;20444;-75
2022/12/09 20:12:18;;;;;;;46.87;30.57;;;;;;;-0.37;100.00;100669.66;5257090;28;20112;-75
2022/12/09 20:14:49;;;;;;;45.13;30.43;;;;;;;-0.13;100.00;100682.97;5267465;28;20419;-75
2022/12/09 20:17:21;;;;;;;51.57;29.97;;;;;;;-0.17;100.00;100692.47;5270644;28;20039;-75
2022/12/09 20:19:52;;;;;;;44.40;28.07;;;;;;;-0.20;100.00;100696.81;5267034;28;20479;-74
2022/12/09 20:22:23;;;;;;;40.20;27.00;;;;;;;-0.28;100.00;100689.25;5263967;28;20127;-74
2022/12/09 20:24:55;;;;;;;40.77;25.67;;;;;;;-0.20;100.00;100678.81;5260722;28;20057;-75
2022/12/09 20:27:26;;;;;;;42.33;28.73;;;;;;;-0.42;100.00;100684.34;5272205;28;20104;-74
2022/12/09 20:29:57;;;;;;;42.87;27.97;;;;;;;-0.27;100.00;100689.22;5271046;28;20455;-72
2022/12/09 20:32:29;;;;;;;43.67;28.50;;;;;;;-0.17;100.00;100691.63;5277373;28;20012;-73
2022/12/09 20:35:00;;;;;;;42.17;28.27;;;;;;;-0.26;100.00;100693.47;5274383;28;20056;-75
2022/12/09 20:37:32;;;;;;;40.97;27.47;;;;;;;-0.25;100.00;100691.78;5260371;28;20027;-75
2022/12/09 20:40:03;;;;;;;44.73;29.37;;;;;;;-0.27;100.00;100690.94;5259514;28;20025;-72
2022/12/09 20:42:35;;;;;;;42.40;28.23;;;;;;;-0.34;100.00;100694.47;5271281;28;20340;-75
2022/12/09 20:45:07;;;;;;;36.73;26.30;;;;;;;-0.41;100.00;100688.59;5258093;28;20111;-75
2022/12/09 20:47:38;;;;;;;43.20;28.57;;;;;;;-0.34;100.00;100690.19;5267954;28;20024;-74
2022/12/09 20:50:10;;;;;;;41.70;28.53;;;;;;;-0.32;100.00;100703.03;5278020;28;20025;-75
2022/12/09 20:52:41;;;;;;;43.53;27.40;;;;;;;-0.46;100.00;100683.53;5272221;28;20033;-75
2022/12/09 20:55:13;;;;;;;44.50;30.33;;;;;;;-0.41;100.00;100693.75;5261134;28;20031;-80
2022/12/09 20:57:44;;;;;;;46.90;29.50;;;;;;;-0.44;100.00;100710.09;5273564;28;20020;-76
2022/12/09 21:00:15;;;;;;;47.50;30.20;;;;;;;-0.55;100.00;100699.97;5273767;28;20032;-75
2022/12/09 21:02:47;;;;;;;49.80;31.37;;;;;;;-0.49;100.00;100692.13;5277653;28;20115;-74
2022/12/09 21:05:18;;;;;;;41.03;27.90;;;;;;;-0.37;100.00;100721.13;5262094;28;20140;-78
2022/12/09 21:07:49;;;;;;;41.63;27.43;;;;;;;-0.52;100.00;100697.34;5261292;28;20537;-73
2022/12/09 21:10:21;;;;;;;41.93;28.80;;;;;;;-0.45;100.00;100717.81;5271142;28;20040;-75
2022/12/09 21:12:52;;;;;;;44.53;29.83;;;;;;;-0.50;100.00;100700.75;5273456;28;20578;-76
2022/12/09 21:15:24;;;;;;;46.20;30.10;;;;;;;-0.54;100.00;100699.06;5271641;28;20024;-75
2022/12/09 21:17:55;;;;;;;47.50;29.10;;;;;;;-0.51;100.00;100711.06;5262734;28;20025;-76
2022/12/09 21:20:27;;;;;;;44.30;29.93;;;;;;;-0.60;100.00;100694.03;5268847;28;20132;-78
2022/12/09 21:22:58;;;;;;;49.80;32.20;;;;;;;-0.55;100.00;100705.09;5274692;28;20052;-76
2022/12/09 21:25:29;;;;;;;48.57;33.37;;;;;;;-0.56;100.00;100695.69;5260231;28;20044;-78
2022/12/09 21:28:00;;;;;;;48.93;30.53;;;;;;;-0.62;100.00;100701.78;5269057;28;20082;-73
2022/12/09 21:30:32;;;;;;;46.87;30.90;;;;;;;-0.64;100.00;100710.38;5272662;28;20494;-76
2022/12/09 21:33:03;;;;;;;46.50;31.10;;;;;;;-0.61;100.00;100707.75;5268382;28;20123;-75
2022/12/09 21:35:35;;;;;;;43.93;29.40;;;;;;;-0.64;100.00;100713.81;5269651;28;20479;-75
2022/12/09 21:38:06;;;;;;;49.40;31.97;;;;;;;-0.72;100.00;100705.38;5256501;28;20032;-76
2022/12/09 21:40:38;;;;;;;45.23;29.10;;;;;;;-0.66;100.00;100717.25;5259143;28;20107;-77
2022/12/09 21:43:10;;;;;;;50.33;30.70;;;;;;;-0.70;100.00;100707.91;5268787;28;20496;-76
2022/12/09 21:45:41;;;;;;;42.67;30.47;;;;;;;-0.66;100.00;100714.69;5270228;28;20029;-73
2022/12/09 21:48:12;;;;;;;47.73;29.83;;;;;;;-0.77;100.00;100708.00;5270070;28;20091;-77
2022/12/09 21:50:43;;;;;;;46.80;32.53;;;;;;;-0.70;100.00;100705.34;5255942;28;20112;-75
2022/12/09 21:53:15;;;;;;;45.90;30.03;;;;;;;-0.79;100.00;100703.75;5255146;28;20029;-75
2022/12/09 21:55:46;;;;;;;49.90;31.40;;;;;;;-0.74;100.00;100710.53;5290040;28;20106;-75
2022/12/09 21:58:18;;;;;;;50.13;32.80;;;;;;;-0.76;100.00;100714.84;5273089;28;20033;-72
